Terminal Aerodrome Forecast
Issued by NWS Detroit/Pontiac, MI

Home | Current Version | Previous Version | Text Only | Print | Product List | Glossary On
Versions: 1 2 3 4 5 6 7 8 9 10 11 12 13 14 15 16 17 18 19 20 21 22 23 24 25 26 27
867
FTUS43 KDTX 111511 AAA
TAFDTW
TAF AMD
KDTW 111511Z 1115/1218 28010KT P6SM SCT040
      TEMPO 1115/1117 P6SM BKN040
     FM111700 28013KT P6SM BKN045
     FM120100 25007KT P6SM SCT045
     FM120800 22010KT P6SM OVC150
     FM121500 25015KT P6SM OVC070=

USA.gov is the U.S. government's official web portal to all federal, state and local government web resources and services.